sensor_id;sensor_type;location;lat;lon;timestamp;temperature;humidity
8313;DHT22;4194;43.408;24.626;2024-03-06T00:01:47;8.20;99.90
8313;DHT22;4194;43.408;24.626;2024-03-06T00:04:13;8.10;99.90
8313;DHT22;4194;43.408;24.626;2024-03-06T00:06:39;7.70;99.90
8313;DHT22;4194;43.408;24.626;2024-03-06T00:09:04;7.70;99.90
8313;DHT22;4194;43.408;24.626;2024-03-06T00:11:30;7.80;99.90
8313;DHT22;4194;43.408;24.626;2024-03-06T00:13:56;6.90;99.90
8313;DHT22;4194;43.408;24.626;2024-03-06T00:16:21;7.90;99.90
8313;DHT22;4194;43.408;24.626;2024-03-06T00:18:47;7.70;99.90
8313;DHT22;4194;43.408;24.626;2024-03-06T00:21:13;7.20;99.90
8313;DHT22;4194;43.408;24.626;2024-03-06T00:23:38;7.60;99.90
8313;DHT22;4194;43.408;24.626;2024-03-06T00:26:04;7.80;99.90
8313;DHT22;4194;43.408;24.626;2024-03-06T00:28:30;7.80;99.90
8313;DHT22;4194;43.408;24.626;2024-03-06T00:30:56;8.00;99.90
8313;DHT22;4194;43.408;24.626;2024-03-06T00:33:23;7.80;99.90
8313;DHT22;4194;43.408;24.626;2024-03-06T00:35:49;7.80;99.90
8313;DHT22;4194;43.408;24.626;2024-03-06T00:38:15;7.70;99.90
8313;DHT22;4194;43.408;24.626;2024-03-06T00:40:41;7.70;99.90
8313;DHT22;4194;43.408;24.626;2024-03-06T00:43:06;7.60;99.90
8313;DHT22;4194;43.408;24.626;2024-03-06T00:45:32;8.00;99.90
8313;DHT22;4194;43.408;24.626;2024-03-06T00:47:58;7.10;99.90
8313;DHT22;4194;43.408;24.626;2024-03-06T00:50:24;8.30;99.90
8313;DHT22;4194;43.408;24.626;2024-03-06T00:52:49;7.10;99.90
8313;DHT22;4194;43.408;24.626;2024-03-06T00:55:15;7.90;99.90
8313;DHT22;4194;43.408;24.626;2024-03-06T00:57:41;7.70;99.90
8313;DHT22;4194;43.408;24.626;2024-03-06T01:00:07;7.70;99.90
8313;DHT22;4194;43.408;24.626;2024-03-06T01:02:39;7.70;99.90
8313;DHT22;4194;43.408;24.626;2024-03-06T01:05:06;8.20;99.90
8313;DHT22;4194;43.408;24.626;2024-03-06T01:07:37;7.60;99.90
8313;DHT22;4194;43.408;24.626;2024-03-06T01:10:04;7.70;99.90
8313;DHT22;4194;43.408;24.626;2024-03-06T01:12:32;7.60;99.90
8313;DHT22;4194;43.408;24.626;2024-03-06T01:14:58;7.60;99.90
8313;DHT22;4194;43.408;24.626;2024-03-06T01:17:23;7.60;99.90
8313;DHT22;4194;43.408;24.626;2024-03-06T01:19:50;7.60;99.90
8313;DHT22;4194;43.408;24.626;2024-03-06T01:22:17;8.30;99.90
8313;DHT22;4194;43.408;24.626;2024-03-06T01:24:43;7.10;99.90
8313;DHT22;4194;43.408;24.626;2024-03-06T01:27:08;7.30;99.90
8313;DHT22;4194;43.408;24.626;2024-03-06T01:29:34;7.50;99.90
8313;DHT22;4194;43.408;24.626;2024-03-06T01:32:00;7.60;99.90
8313;DHT22;4194;43.408;24.626;2024-03-06T01:34:26;7.50;99.90
8313;DHT22;4194;43.408;24.626;2024-03-06T01:36:52;7.50;99.90
8313;DHT22;4194;43.408;24.626;2024-03-06T01:39:19;7.30;99.90
8313;DHT22;4194;43.408;24.626;2024-03-06T01:41:49;7.30;99.90
8313;DHT22;4194;43.408;24.626;2024-03-06T01:44:16;7.70;99.90
8313;DHT22;4194;43.408;24.626;2024-03-06T01:46:43;7.50;99.90
8313;DHT22;4194;43.408;24.626;2024-03-06T01:49:09;7.50;99.90
8313;DHT22;4194;43.408;24.626;2024-03-06T01:51:35;7.20;99.90
8313;DHT22;4194;43.408;24.626;2024-03-06T01:54:02;7.30;99.90
8313;DHT22;4194;43.408;24.626;2024-03-06T01:56:33;6.10;99.90
8313;DHT22;4194;43.408;24.626;2024-03-06T01:58:59;7.70;99.90
8313;DHT22;4194;43.408;24.626;2024-03-06T02:01:25;7.50;99.90
8313;DHT22;4194;43.408;24.626;2024-03-06T02:03:51;7.30;99.90
8313;DHT22;4194;43.408;24.626;2024-03-06T02:06:17;7.40;99.90
8313;DHT22;4194;43.408;24.626;2024-03-06T02:08:48;7.50;99.90
8313;DHT22;4194;43.408;24.626;2024-03-06T02:11:14;7.50;99.90
8313;DHT22;4194;43.408;24.626;2024-03-06T02:13:42;7.40;99.90
8313;DHT22;4194;43.408;24.626;2024-03-06T02:16:09;7.70;99.90
8313;DHT22;4194;43.408;24.626;2024-03-06T02:18:35;7.40;99.90
8313;DHT22;4194;43.408;24.626;2024-03-06T02:21:02;7.40;99.90
8313;DHT22;4194;43.408;24.626;2024-03-06T02:23:30;7.50;99.90
8313;DHT22;4194;43.408;24.626;2024-03-06T02:25:56;7.40;99.90
8313;DHT22;4194;43.408;24.626;2024-03-06T02:28:22;7.20;99.90
8313;DHT22;4194;43.408;24.626;2024-03-06T02:30:50;7.40;99.90
8313;DHT22;4194;43.408;24.626;2024-03-06T02:33:16;7.70;99.90
8313;DHT22;4194;43.408;24.626;2024-03-06T02:35:43;7.40;99.90
8313;DHT22;4194;43.408;24.626;2024-03-06T02:38:10;7.50;99.90
8313;DHT22;4194;43.408;24.626;2024-03-06T02:40:36;7.40;99.90
8313;DHT22;4194;43.408;24.626;2024-03-06T02:43:02;7.70;99.90
8313;DHT22;4194;43.408;24.626;2024-03-06T02:45:28;7.60;99.90
8313;DHT22;4194;43.408;24.626;2024-03-06T02:47:53;7.10;99.90
8313;DHT22;4194;43.408;24.626;2024-03-06T02:50:20;6.80;99.90
8313;DHT22;4194;43.408;24.626;2024-03-06T02:52:46;7.20;99.90
8313;DHT22;4194;43.408;24.626;2024-03-06T02:55:12;7.20;99.90
8313;DHT22;4194;43.408;24.626;2024-03-06T02:57:38;7.20;99.90
8313;DHT22;4194;43.408;24.626;2024-03-06T03:00:04;7.60;99.90
8313;DHT22;4194;43.408;24.626;2024-03-06T03:02:30;7.20;99.90
8313;DHT22;4194;43.408;24.626;2024-03-06T03:04:56;7.20;99.90
8313;DHT22;4194;43.408;24.626;2024-03-06T03:07:23;7.00;99.90
8313;DHT22;4194;43.408;24.626;2024-03-06T03:09:49;6.60;99.90
8313;DHT22;4194;43.408;24.626;2024-03-06T03:12:15;7.20;99.90
8313;DHT22;4194;43.408;24.626;2024-03-06T03:14:41;6.80;99.90
8313;DHT22;4194;43.408;24.626;2024-03-06T03:17:07;7.70;99.90
8313;DHT22;4194;43.408;24.626;2024-03-06T03:19:33;7.10;99.90
8313;DHT22;4194;43.408;24.626;2024-03-06T03:21:59;7.20;99.90
8313;DHT22;4194;43.408;24.626;2024-03-06T03:24:24;7.10;99.90
8313;DHT22;4194;43.408;24.626;2024-03-06T03:26:53;7.30;99.90
8313;DHT22;4194;43.408;24.626;2024-03-06T03:29:19;6.70;99.90
8313;DHT22;4194;43.408;24.626;2024-03-06T03:31:46;7.30;99.90
8313;DHT22;4194;43.408;24.626;2024-03-06T03:36:42;7.30;99.90
8313;DHT22;4194;43.408;24.626;2024-03-06T03:39:09;7.40;99.90
8313;DHT22;4194;43.408;24.626;2024-03-06T03:41:47;7.00;99.90
8313;DHT22;4194;43.408;24.626;2024-03-06T03:44:15;7.10;99.90
8313;DHT22;4194;43.408;24.626;2024-03-06T03:46:42;6.60;99.90
8313;DHT22;4194;43.408;24.626;2024-03-06T03:49:08;7.20;99.90
8313;DHT22;4194;43.408;24.626;2024-03-06T03:51:40;7.50;99.90
8313;DHT22;4194;43.408;24.626;2024-03-06T03:54:06;7.70;99.90
8313;DHT22;4194;43.408;24.626;2024-03-06T03:56:32;7.40;99.90
8313;DHT22;4194;43.408;24.626;2024-03-06T03:58:59;6.70;99.90
8313;DHT22;4194;43.408;24.626;2024-03-06T04:01:25;6.50;99.90
8313;DHT22;4194;43.408;24.626;2024-03-06T04:03:51;7.60;99.90
8313;DHT22;4194;43.408;24.626;2024-03-06T04:06:17;7.30;99.90
8313;DHT22;4194;43.408;24.626;2024-03-06T04:08:43;7.20;99.90
8313;DHT22;4194;43.408;24.626;2024-03-06T04:11:08;7.90;99.90
8313;DHT22;4194;43.408;24.626;2024-03-06T04:13:38;7.20;99.90
8313;DHT22;4194;43.408;24.626;2024-03-06T04:16:04;7.20;99.90
8313;DHT22;4194;43.408;24.626;2024-03-06T04:18:34;7.10;99.90
8313;DHT22;4194;43.408;24.626;2024-03-06T04:21:05;7.90;99.90
8313;DHT22;4194;43.408;24.626;2024-03-06T04:23:31;7.30;99.90
8313;DHT22;4194;43.408;24.626;2024-03-06T04:25:58;7.30;99.90
8313;DHT22;4194;43.408;24.626;2024-03-06T04:28:24;7.30;99.90
8313;DHT22;4194;43.408;24.626;2024-03-06T04:30:50;7.30;99.90
8313;DHT22;4194;43.408;24.626;2024-03-06T04:33:15;7.40;99.90
8313;DHT22;4194;43.408;24.626;2024-03-06T04:35:41;7.80;99.90
8313;DHT22;4194;43.408;24.626;2024-03-06T04:38:07;7.30;99.90
8313;DHT22;4194;43.408;24.626;2024-03-06T04:40:33;6.80;99.90
8313;DHT22;4194;43.408;24.626;2024-03-06T04:43:02;6.90;99.90
8313;DHT22;4194;43.408;24.626;2024-03-06T04:45:27;7.40;99.90
8313;DHT22;4194;43.408;24.626;2024-03-06T04:47:56;7.30;99.90
8313;DHT22;4194;43.408;24.626;2024-03-06T04:50:22;7.30;99.90
8313;DHT22;4194;43.408;24.626;2024-03-06T04:52:47;7.90;99.90
8313;DHT22;4194;43.408;24.626;2024-03-06T04:55:13;7.50;99.90
8313;DHT22;4194;43.408;24.626;2024-03-06T04:57:43;7.50;99.90
8313;DHT22;4194;43.408;24.626;2024-03-06T05:00:10;7.50;99.90
8313;DHT22;4194;43.408;24.626;2024-03-06T05:02:36;8.00;99.90
8313;DHT22;4194;43.408;24.626;2024-03-06T05:05:06;7.10;99.90
8313;DHT22;4194;43.408;24.626;2024-03-06T05:07:33;7.70;99.90
8313;DHT22;4194;43.408;24.626;2024-03-06T05:10:00;7.40;99.90
8313;DHT22;4194;43.408;24.626;2024-03-06T05:12:27;7.80;99.90
8313;DHT22;4194;43.408;24.626;2024-03-06T05:14:54;7.40;99.90
8313;DHT22;4194;43.408;24.626;2024-03-06T05:17:20;7.00;99.90
8313;DHT22;4194;43.408;24.626;2024-03-06T05:19:46;7.30;99.90
8313;DHT22;4194;43.408;24.626;2024-03-06T05:22:16;8.00;99.90
8313;DHT22;4194;43.408;24.626;2024-03-06T05:24:42;6.80;99.90
8313;DHT22;4194;43.408;24.626;2024-03-06T05:27:09;8.00;99.90
8313;DHT22;4194;43.408;24.626;2024-03-06T05:29:36;7.30;99.90
8313;DHT22;4194;43.408;24.626;2024-03-06T05:32:02;8.70;99.90
8313;DHT22;4194;43.408;24.626;2024-03-06T05:34:29;7.70;99.90
8313;DHT22;4194;43.408;24.626;2024-03-06T05:36:57;7.10;99.90
8313;DHT22;4194;43.408;24.626;2024-03-06T05:39:23;7.50;99.90
8313;DHT22;4194;43.408;24.626;2024-03-06T05:41:49;7.50;99.90
8313;DHT22;4194;43.408;24.626;2024-03-06T05:44:14;6.90;99.90
8313;DHT22;4194;43.408;24.626;2024-03-06T05:46:40;6.60;99.90
8313;DHT22;4194;43.408;24.626;2024-03-06T05:49:06;7.10;99.90
8313;DHT22;4194;43.408;24.626;2024-03-06T05:51:32;7.10;99.90
8313;DHT22;4194;43.408;24.626;2024-03-06T05:53:57;8.00;99.90
8313;DHT22;4194;43.408;24.626;2024-03-06T05:56:23;7.50;99.90
8313;DHT22;4194;43.408;24.626;2024-03-06T05:58:49;7.50;99.90
8313;DHT22;4194;43.408;24.626;2024-03-06T06:01:18;7.50;99.90
8313;DHT22;4194;43.408;24.626;2024-03-06T06:03:48;7.40;99.90
8313;DHT22;4194;43.408;24.626;2024-03-06T06:06:17;8.00;99.90
8313;DHT22;4194;43.408;24.626;2024-03-06T06:08:44;7.60;99.90
8313;DHT22;4194;43.408;24.626;2024-03-06T06:11:11;8.10;99.90
8313;DHT22;4194;43.408;24.626;2024-03-06T06:13:37;7.60;99.90
8313;DHT22;4194;43.408;24.626;2024-03-06T06:16:04;7.60;99.90
8313;DHT22;4194;43.408;24.626;2024-03-06T06:18:30;8.40;99.90
8313;DHT22;4194;43.408;24.626;2024-03-06T06:21:00;7.40;99.90
8313;DHT22;4194;43.408;24.626;2024-03-06T06:23:25;7.80;99.90
8313;DHT22;4194;43.408;24.626;2024-03-06T06:25:51;8.20;99.90
8313;DHT22;4194;43.408;24.626;2024-03-06T06:28:17;7.70;99.90
8313;DHT22;4194;43.408;24.626;2024-03-06T06:30:43;7.90;99.90
8313;DHT22;4194;43.408;24.626;2024-03-06T06:33:09;7.70;99.90
8313;DHT22;4194;43.408;24.626;2024-03-06T06:35:35;8.70;99.90
8313;DHT22;4194;43.408;24.626;2024-03-06T06:38:01;7.80;99.90
8313;DHT22;4194;43.408;24.626;2024-03-06T06:40:27;7.30;99.90
8313;DHT22;4194;43.408;24.626;2024-03-06T06:42:56;7.10;99.90
8313;DHT22;4194;43.408;24.626;2024-03-06T06:45:22;7.80;99.90
8313;DHT22;4194;43.408;24.626;2024-03-06T06:47:50;8.70;99.90
8313;DHT22;4194;43.408;24.626;2024-03-06T06:50:17;8.00;99.90
8313;DHT22;4194;43.408;24.626;2024-03-06T06:52:42;7.90;99.90
8313;DHT22;4194;43.408;24.626;2024-03-06T06:55:08;7.90;99.90
8313;DHT22;4194;43.408;24.626;2024-03-06T06:57:37;7.70;99.90
8313;DHT22;4194;43.408;24.626;2024-03-06T07:00:04;7.40;99.90
8313;DHT22;4194;43.408;24.626;2024-03-06T07:02:42;7.80;99.90
8313;DHT22;4194;43.408;24.626;2024-03-06T07:05:09;8.50;99.90
8313;DHT22;4194;43.408;24.626;2024-03-06T07:07:36;7.90;99.90
8313;DHT22;4194;43.408;24.626;2024-03-06T07:10:02;8.60;99.90
8313;DHT22;4194;43.408;24.626;2024-03-06T07:12:29;8.00;99.90
8313;DHT22;4194;43.408;24.626;2024-03-06T07:14:54;8.30;99.90
8313;DHT22;4194;43.408;24.626;2024-03-06T07:17:20;8.60;99.90
8313;DHT22;4194;43.408;24.626;2024-03-06T07:19:46;8.10;99.90
8313;DHT22;4194;43.408;24.626;2024-03-06T07:22:11;8.20;99.90
8313;DHT22;4194;43.408;24.626;2024-03-06T07:24:37;8.20;99.90
8313;DHT22;4194;43.408;24.626;2024-03-06T07:27:03;8.70;99.90
8313;DHT22;4194;43.408;24.626;2024-03-06T07:29:29;8.40;99.90
8313;DHT22;4194;43.408;24.626;2024-03-06T07:31:55;8.50;99.90
8313;DHT22;4194;43.408;24.626;2024-03-06T07:34:21;8.50;99.90
8313;DHT22;4194;43.408;24.626;2024-03-06T07:36:47;8.50;99.90
8313;DHT22;4194;43.408;24.626;2024-03-06T07:39:15;8.40;99.90
8313;DHT22;4194;43.408;24.626;2024-03-06T07:41:41;8.80;99.90
8313;DHT22;4194;43.408;24.626;2024-03-06T07:44:07;8.80;99.90
8313;DHT22;4194;43.408;24.626;2024-03-06T07:46:34;8.60;99.90
8313;DHT22;4194;43.408;24.626;2024-03-06T07:49:00;8.90;99.90
8313;DHT22;4194;43.408;24.626;2024-03-06T07:51:37;9.00;99.90
8313;DHT22;4194;43.408;24.626;2024-03-06T07:54:03;9.00;99.90
8313;DHT22;4194;43.408;24.626;2024-03-06T07:56:29;9.10;99.90
8313;DHT22;4194;43.408;24.626;2024-03-06T07:58:55;9.40;99.90
8313;DHT22;4194;43.408;24.626;2024-03-06T08:01:22;8.80;99.90
8313;DHT22;4194;43.408;24.626;2024-03-06T08:03:47;9.10;99.90
8313;DHT22;4194;43.408;24.626;2024-03-06T08:06:13;9.40;99.90
8313;DHT22;4194;43.408;24.626;2024-03-06T08:08:42;9.40;99.90
8313;DHT22;4194;43.408;24.626;2024-03-06T08:11:10;9.30;99.90
8313;DHT22;4194;43.408;24.626;2024-03-06T08:13:36;9.30;99.90
8313;DHT22;4194;43.408;24.626;2024-03-06T08:16:02;9.30;99.90
8313;DHT22;4194;43.408;24.626;2024-03-06T08:18:29;9.70;99.90
8313;DHT22;4194;43.408;24.626;2024-03-06T08:20:56;9.00;99.90
8313;DHT22;4194;43.408;24.626;2024-03-06T08:23:22;9.60;99.90
8313;DHT22;4194;43.408;24.626;2024-03-06T08:25:49;9.60;99.90
8313;DHT22;4194;43.408;24.626;2024-03-06T08:28:15;10.00;99.90
8313;DHT22;4194;43.408;24.626;2024-03-06T08:30:41;10.20;99.90
8313;DHT22;4194;43.408;24.626;2024-03-06T08:33:07;10.40;99.90
8313;DHT22;4194;43.408;24.626;2024-03-06T08:35:33;10.50;99.90
8313;DHT22;4194;43.408;24.626;2024-03-06T08:38:00;11.70;99.90
8313;DHT22;4194;43.408;24.626;2024-03-06T08:40:25;10.60;99.90
8313;DHT22;4194;43.408;24.626;2024-03-06T08:42:53;10.50;99.90
8313;DHT22;4194;43.408;24.626;2024-03-06T08:45:19;10.30;99.90
8313;DHT22;4194;43.408;24.626;2024-03-06T08:47:45;10.50;99.90
8313;DHT22;4194;43.408;24.626;2024-03-06T08:50:11;11.20;99.90
8313;DHT22;4194;43.408;24.626;2024-03-06T08:52:38;10.80;99.90
8313;DHT22;4194;43.408;24.626;2024-03-06T08:55:04;9.70;99.90
8313;DHT22;4194;43.408;24.626;2024-03-06T08:57:31;10.30;99.90
8313;DHT22;4194;43.408;24.626;2024-03-06T08:59:58;10.00;99.90
8313;DHT22;4194;43.408;24.626;2024-03-06T09:02:24;9.90;99.90
8313;DHT22;4194;43.408;24.626;2024-03-06T09:04:51;9.90;99.90
8313;DHT22;4194;43.408;24.626;2024-03-06T09:07:17;10.60;99.90
8313;DHT22;4194;43.408;24.626;2024-03-06T09:09:43;10.00;99.90
8313;DHT22;4194;43.408;24.626;2024-03-06T09:12:10;10.00;99.90
8313;DHT22;4194;43.408;24.626;2024-03-06T09:14:40;9.80;99.90
8313;DHT22;4194;43.408;24.626;2024-03-06T09:17:06;10.30;99.90
8313;DHT22;4194;43.408;24.626;2024-03-06T09:19:35;9.70;99.90
8313;DHT22;4194;43.408;24.626;2024-03-06T09:22:01;9.70;99.90
8313;DHT22;4194;43.408;24.626;2024-03-06T09:24:28;9.60;99.90
8313;DHT22;4194;43.408;24.626;2024-03-06T09:26:54;9.50;99.90
8313;DHT22;4194;43.408;24.626;2024-03-06T09:29:20;9.80;99.90
8313;DHT22;4194;43.408;24.626;2024-03-06T09:31:47;9.90;99.90
8313;DHT22;4194;43.408;24.626;2024-03-06T09:34:14;9.90;99.90
8313;DHT22;4194;43.408;24.626;2024-03-06T09:36:46;10.10;99.90
8313;DHT22;4194;43.408;24.626;2024-03-06T09:39:16;10.10;99.90
8313;DHT22;4194;43.408;24.626;2024-03-06T09:41:46;10.20;99.90
8313;DHT22;4194;43.408;24.626;2024-03-06T09:44:12;10.30;99.90
8313;DHT22;4194;43.408;24.626;2024-03-06T09:46:42;10.50;99.90
8313;DHT22;4194;43.408;24.626;2024-03-06T09:49:09;10.30;99.90
8313;DHT22;4194;43.408;24.626;2024-03-06T09:51:35;10.40;99.90
8313;DHT22;4194;43.408;24.626;2024-03-06T09:54:02;10.50;99.90
8313;DHT22;4194;43.408;24.626;2024-03-06T09:56:28;10.60;99.90
8313;DHT22;4194;43.408;24.626;2024-03-06T09:58:54;10.20;99.90
8313;DHT22;4194;43.408;24.626;2024-03-06T10:01:21;11.10;99.90
8313;DHT22;4194;43.408;24.626;2024-03-06T10:03:47;10.60;99.90
8313;DHT22;4194;43.408;24.626;2024-03-06T10:06:13;11.30;99.90
8313;DHT22;4194;43.408;24.626;2024-03-06T10:08:42;11.60;99.90
8313;DHT22;4194;43.408;24.626;2024-03-06T10:11:08;11.50;99.90
8313;DHT22;4194;43.408;24.626;2024-03-06T10:13:34;11.70;99.90
8313;DHT22;4194;43.408;24.626;2024-03-06T10:16:04;12.20;99.90
8313;DHT22;4194;43.408;24.626;2024-03-06T10:18:34;12.10;99.90
8313;DHT22;4194;43.408;24.626;2024-03-06T10:21:00;12.20;99.90
8313;DHT22;4194;43.408;24.626;2024-03-06T10:23:26;12.00;99.90
8313;DHT22;4194;43.408;24.626;2024-03-06T10:25:54;11.90;99.90
8313;DHT22;4194;43.408;24.626;2024-03-06T10:28:22;11.70;99.90
8313;DHT22;4194;43.408;24.626;2024-03-06T10:30:48;11.80;99.90
8313;DHT22;4194;43.408;24.626;2024-03-06T10:33:16;12.50;99.90
8313;DHT22;4194;43.408;24.626;2024-03-06T10:35:44;11.90;99.90
8313;DHT22;4194;43.408;24.626;2024-03-06T10:38:11;11.40;99.90
8313;DHT22;4194;43.408;24.626;2024-03-06T10:40:39;12.10;99.90
8313;DHT22;4194;43.408;24.626;2024-03-06T10:43:06;12.30;99.90
8313;DHT22;4194;43.408;24.626;2024-03-06T10:45:47;12.30;99.90
8313;DHT22;4194;43.408;24.626;2024-03-06T10:48:14;12.30;99.90
8313;DHT22;4194;43.408;24.626;2024-03-06T10:50:40;12.20;99.90
8313;DHT22;4194;43.408;24.626;2024-03-06T10:53:13;12.80;99.90
8313;DHT22;4194;43.408;24.626;2024-03-06T10:55:40;12.10;99.90
8313;DHT22;4194;43.408;24.626;2024-03-06T10:58:07;12.20;99.90
8313;DHT22;4194;43.408;24.626;2024-03-06T11:00:40;12.50;99.90
8313;DHT22;4194;43.408;24.626;2024-03-06T11:03:07;12.20;99.90
8313;DHT22;4194;43.408;24.626;2024-03-06T11:05:36;11.90;99.90
8313;DHT22;4194;43.408;24.626;2024-03-06T11:08:09;11.70;99.90
8313;DHT22;4194;43.408;24.626;2024-03-06T11:10:37;12.00;99.90
8313;DHT22;4194;43.408;24.626;2024-03-06T11:13:08;11.90;99.90
8313;DHT22;4194;43.408;24.626;2024-03-06T11:15:34;11.50;99.90
8313;DHT22;4194;43.408;24.626;2024-03-06T11:23:30;12.80;99.90
8313;DHT22;4194;43.408;24.626;2024-03-06T11:25:56;12.50;99.90
8313;DHT22;4194;43.408;24.626;2024-03-06T11:28:30;12.90;99.90
8313;DHT22;4194;43.408;24.626;2024-03-06T11:31:10;13.20;99.90
8313;DHT22;4194;43.408;24.626;2024-03-06T11:33:45;14.10;99.50
8313;DHT22;4194;43.408;24.626;2024-03-06T11:36:21;14.40;97.60
8313;DHT22;4194;43.408;24.626;2024-03-06T11:39:04;14.10;96.30
8313;DHT22;4194;43.408;24.626;2024-03-06T11:41:47;14.20;95.40
8313;DHT22;4194;43.408;24.626;2024-03-06T11:44:15;14.00;96.80
8313;DHT22;4194;43.408;24.626;2024-03-06T11:46:57;14.00;96.50
8313;DHT22;4194;43.408;24.626;2024-03-06T11:49:24;13.90;96.00
8313;DHT22;4194;43.408;24.626;2024-03-06T11:51:56;14.10;95.80
8313;DHT22;4194;43.408;24.626;2024-03-06T11:54:23;14.80;95.40
8313;DHT22;4194;43.408;24.626;2024-03-06T11:56:50;14.50;94.40
8313;DHT22;4194;43.408;24.626;2024-03-06T11:59:24;15.10;94.60
8313;DHT22;4194;43.408;24.626;2024-03-06T12:01:54;14.40;92.90
8313;DHT22;4194;43.408;24.626;2024-03-06T12:04:20;15.00;93.00
8313;DHT22;4194;43.408;24.626;2024-03-06T12:06:47;15.40;92.30
8313;DHT22;4194;43.408;24.626;2024-03-06T12:09:14;15.80;92.00
8313;DHT22;4194;43.408;24.626;2024-03-06T12:11:40;15.90;90.50
8313;DHT22;4194;43.408;24.626;2024-03-06T12:14:16;16.20;89.60
8313;DHT22;4194;43.408;24.626;2024-03-06T12:16:56;16.60;87.80
8313;DHT22;4194;43.408;24.626;2024-03-06T12:19:22;17.80;84.00
8313;DHT22;4194;43.408;24.626;2024-03-06T12:21:48;19.30;79.00
8313;DHT22;4194;43.408;24.626;2024-03-06T12:24:16;21.10;73.10
8313;DHT22;4194;43.408;24.626;2024-03-06T12:26:46;22.00;67.90
8313;DHT22;4194;43.408;24.626;2024-03-06T12:29:18;23.50;65.10
8313;DHT22;4194;43.408;24.626;2024-03-06T12:31:47;23.80;62.00
8313;DHT22;4194;43.408;24.626;2024-03-06T12:34:15;24.30;60.00
8313;DHT22;4194;43.408;24.626;2024-03-06T12:36:45;24.90;58.00
8313;DHT22;4194;43.408;24.626;2024-03-06T12:39:15;24.60;57.40
8313;DHT22;4194;43.408;24.626;2024-03-06T12:41:43;23.20;58.80
8313;DHT22;4194;43.408;24.626;2024-03-06T12:44:09;22.20;61.70
8313;DHT22;4194;43.408;24.626;2024-03-06T12:46:35;20.70;63.30
8313;DHT22;4194;43.408;24.626;2024-03-06T12:49:01;19.90;64.80
8313;DHT22;4194;43.408;24.626;2024-03-06T12:51:26;18.50;67.70
8313;DHT22;4194;43.408;24.626;2024-03-06T12:53:52;18.40;70.20
8313;DHT22;4194;43.408;24.626;2024-03-06T12:56:18;17.50;71.20
8313;DHT22;4194;43.408;24.626;2024-03-06T12:58:45;17.90;72.30
8313;DHT22;4194;43.408;24.626;2024-03-06T13:01:10;19.50;70.40
8313;DHT22;4194;43.408;24.626;2024-03-06T13:03:37;20.30;67.40
8313;DHT22;4194;43.408;24.626;2024-03-06T13:06:03;20.00;67.30
8313;DHT22;4194;43.408;24.626;2024-03-06T13:08:30;19.30;67.30
8313;DHT22;4194;43.408;24.626;2024-03-06T13:10:56;18.60;69.10
8313;DHT22;4194;43.408;24.626;2024-03-06T13:13:22;17.20;71.00
8313;DHT22;4194;43.408;24.626;2024-03-06T13:15:51;16.90;73.80
8313;DHT22;4194;43.408;24.626;2024-03-06T13:18:18;16.60;77.00
8313;DHT22;4194;43.408;24.626;2024-03-06T13:20:44;16.10;78.30
8313;DHT22;4194;43.408;24.626;2024-03-06T13:23:10;16.30;78.90
8313;DHT22;4194;43.408;24.626;2024-03-06T13:25:36;16.20;80.30
8313;DHT22;4194;43.408;24.626;2024-03-06T13:28:02;15.80;81.00
8313;DHT22;4194;43.408;24.626;2024-03-06T13:30:28;15.70;80.80
8313;DHT22;4194;43.408;24.626;2024-03-06T13:32:54;15.60;82.40
8313;DHT22;4194;43.408;24.626;2024-03-06T13:35:20;15.90;83.10
8313;DHT22;4194;43.408;24.626;2024-03-06T13:37:46;15.60;83.30
8313;DHT22;4194;43.408;24.626;2024-03-06T13:40:12;14.50;82.40
8313;DHT22;4194;43.408;24.626;2024-03-06T13:42:42;16.10;83.90
8313;DHT22;4194;43.408;24.626;2024-03-06T13:45:08;17.20;79.70
8313;DHT22;4194;43.408;24.626;2024-03-06T13:47:46;18.30;76.50
8313;DHT22;4194;43.408;24.626;2024-03-06T13:50:13;18.50;73.00
8313;DHT22;4194;43.408;24.626;2024-03-06T13:52:43;18.60;73.90
8313;DHT22;4194;43.408;24.626;2024-03-06T13:55:09;17.20;75.70
8313;DHT22;4194;43.408;24.626;2024-03-06T13:57:36;16.20;77.30
8313;DHT22;4194;43.408;24.626;2024-03-06T14:00:09;15.50;80.30
8313;DHT22;4194;43.408;24.626;2024-03-06T14:02:41;15.30;81.80
8313;DHT22;4194;43.408;24.626;2024-03-06T14:05:07;15.10;81.90
8313;DHT22;4194;43.408;24.626;2024-03-06T14:07:34;16.40;81.90
8313;DHT22;4194;43.408;24.626;2024-03-06T14:09:59;19.00;75.30
8313;DHT22;4194;43.408;24.626;2024-03-06T14:12:25;21.10;68.40
8313;DHT22;4194;43.408;24.626;2024-03-06T14:14:51;22.20;65.10
8313;DHT22;4194;43.408;24.626;2024-03-06T14:17:16;23.30;61.90
8313;DHT22;4194;43.408;24.626;2024-03-06T14:19:42;23.20;60.70
8313;DHT22;4194;43.408;24.626;2024-03-06T14:22:08;23.70;59.70
8313;DHT22;4194;43.408;24.626;2024-03-06T14:24:34;24.80;57.90
8313;DHT22;4194;43.408;24.626;2024-03-06T14:27:01;25.70;56.00
8313;DHT22;4194;43.408;24.626;2024-03-06T14:29:27;26.30;53.60
8313;DHT22;4194;43.408;24.626;2024-03-06T14:31:53;26.40;53.20
8313;DHT22;4194;43.408;24.626;2024-03-06T14:34:20;26.40;52.40
8313;DHT22;4194;43.408;24.626;2024-03-06T14:36:46;26.20;52.20
8313;DHT22;4194;43.408;24.626;2024-03-06T14:39:11;25.20;52.70
8313;DHT22;4194;43.408;24.626;2024-03-06T14:41:39;25.70;53.60
8313;DHT22;4194;43.408;24.626;2024-03-06T14:44:04;25.00;54.00
8313;DHT22;4194;43.408;24.626;2024-03-06T14:46:30;23.40;56.30
8313;DHT22;4194;43.408;24.626;2024-03-06T14:48:56;22.20;58.50
8313;DHT22;4194;43.408;24.626;2024-03-06T14:51:22;20.60;60.10
8313;DHT22;4194;43.408;24.626;2024-03-06T14:53:48;18.80;61.20
8313;DHT22;4194;43.408;24.626;2024-03-06T14:56:13;19.30;64.30
8313;DHT22;4194;43.408;24.626;2024-03-06T14:58:39;19.80;64.90
8313;DHT22;4194;43.408;24.626;2024-03-06T15:01:05;19.70;63.80
8313;DHT22;4194;43.408;24.626;2024-03-06T15:03:31;19.60;63.60
8313;DHT22;4194;43.408;24.626;2024-03-06T15:05:57;20.00;63.10
8313;DHT22;4194;43.408;24.626;2024-03-06T15:08:23;20.50;62.20
8313;DHT22;4194;43.408;24.626;2024-03-06T15:10:49;20.80;61.80
8313;DHT22;4194;43.408;24.626;2024-03-06T15:13:17;20.80;60.90
8313;DHT22;4194;43.408;24.626;2024-03-06T15:15:44;20.90;61.50
8313;DHT22;4194;43.408;24.626;2024-03-06T15:18:10;21.00;61.40
8313;DHT22;4194;43.408;24.626;2024-03-06T15:20:36;21.10;60.30
8313;DHT22;4194;43.408;24.626;2024-03-06T15:23:02;20.60;61.00
8313;DHT22;4194;43.408;24.626;2024-03-06T15:25:28;19.90;61.70
8313;DHT22;4194;43.408;24.626;2024-03-06T15:27:53;19.20;62.90
8313;DHT22;4194;43.408;24.626;2024-03-06T15:30:19;18.60;64.50
8313;DHT22;4194;43.408;24.626;2024-03-06T15:32:46;18.10;66.10
8313;DHT22;4194;43.408;24.626;2024-03-06T15:35:12;17.40;67.40
8313;DHT22;4194;43.408;24.626;2024-03-06T15:37:37;17.20;69.60
8313;DHT22;4194;43.408;24.626;2024-03-06T15:40:04;16.30;70.00
8313;DHT22;4194;43.408;24.626;2024-03-06T15:42:31;15.70;72.20
8313;DHT22;4194;43.408;24.626;2024-03-06T15:44:57;14.90;73.90
8313;DHT22;4194;43.408;24.626;2024-03-06T15:47:23;14.50;75.80
8313;DHT22;4194;43.408;24.626;2024-03-06T15:49:49;14.00;77.20
8313;DHT22;4194;43.408;24.626;2024-03-06T15:52:15;13.60;78.70
8313;DHT22;4194;43.408;24.626;2024-03-06T15:54:41;13.30;80.20
8313;DHT22;4194;43.408;24.626;2024-03-06T15:57:08;12.90;81.80
8313;DHT22;4194;43.408;24.626;2024-03-06T15:59:37;12.50;82.60
8313;DHT22;4194;43.408;24.626;2024-03-06T16:02:04;12.30;83.70